Portada
METAR-TAF:

METAR-TAF

Aeroports :

Lublin, Polònia

latitud: 51-13-55N, longitud: 22-41-25E, altitud: 203 m

Observació

L'informe es va fer fa 21 minuts, a les 07:30 UTC
Vent 6 kt del Oest/Sud-Oest, variant entre Sud/Sud-Oest i Oest
Temperatura 26°C
Humitat 70%
Pressió 1009 hPa
Visibilitat 10 km o més
sense núvols per sota de 1500 mi sense presència de cumulonimbus.

METAR: EPLB 060730Z 24006KT 200V270 CAVOK 26/20 Q1009

Hora: 09:51 (07:51 UTC)

Pronòstic

L'informe es va fer fa 2 hores i 21 minuts, a les 05:30 UTC
Pronòstic vàlid del 06 a les 06 UTC al 06 a les 15 UTC
Vent 10 kt del Oest/Sud-Oest
Visibilitat 10 km o més
sense núvols per sota de 1500 mi sense presència de cumulonimbus.
Temporalment
l' 06 a les 09 UTC al 06 a les 15 UTC
Vent 15 kt del Oest amb ràfegues de 25 kt
Cel ennuvolat a una alçada de 3500 ft, Cumulonimbus.
xàfecs de pluja

TAF: EPLB 060530Z 0606/0615 24010KT CAVOK TEMPO 0609/0615 28015G25KT -SHRA BKN035CB

Observacions i pronòstics meteorològics de més de 4000 aeroports (METAR i TAF).

Les estacions disponibles són els punts grocs i vermells al mapa.

Posi el ratolí al punt desitjat per veure el nom de l'estació.

Feu clic per veure les observacions i els pronòstics meteorològics.

Per canviar el mapa: feu clic els botons verds amb una creu de color negre per apropar; al botó verd amb un guió per allunyar la imatge; o en les fletxes verdes per a mapes adjacents.


METAR-TAF: